Highland, Nebraska
Current Conditions -  °F | °C
As of 7:35 AM on Friday 19 Dec 2014 (Local Time) from KBIE Reporting Station
Haze Haze  
Wind Chill: 30°   Ceiling: 1500
Heat Index: 30°   Visibility: 5mi
Dew Point: 28°   Wind: 3mph
Humidity: 93%   Direction: 160°SSE
Pressure: 30.2"   Gusts: NA
Location:  40.4797°N, 96.7417°W
Report Text: KBIE 191335Z AUTO 16003KT 5SM BR OVC015 M01/M02 A3020 RMK AO2 T10101020
Loading
Personal Weather Stations






























Interactive Weather Map New forecast layout! Learn more

10-Day Weather Forecast

Advertisements
Track Severe Weather on mobile